sensor_id;sensor_type;location;lat;lon;timestamp;P1;durP1;ratioP1;P2;durP2;ratioP2
6280;SDS011;3173;48.204;11.612;2023-03-01T00:02:21;24.00;;;12.47;;
6280;SDS011;3173;48.204;11.612;2023-03-01T00:04:47;22.60;;;12.33;;
6280;SDS011;3173;48.204;11.612;2023-03-01T00:07:14;19.20;;;11.27;;
6280;SDS011;3173;48.204;11.612;2023-03-01T00:09:40;20.67;;;12.17;;
6280;SDS011;3173;48.204;11.612;2023-03-01T00:12:06;22.40;;;12.23;;
6280;SDS011;3173;48.204;11.612;2023-03-01T00:14:32;20.50;;;12.67;;
6280;SDS011;3173;48.204;11.612;2023-03-01T00:16:59;20.77;;;12.27;;
6280;SDS011;3173;48.204;11.612;2023-03-01T00:19:25;21.93;;;12.60;;
6280;SDS011;3173;48.204;11.612;2023-03-01T00:21:51;22.00;;;13.13;;
6280;SDS011;3173;48.204;11.612;2023-03-01T00:24:17;20.93;;;13.10;;
6280;SDS011;3173;48.204;11.612;2023-03-01T00:26:43;21.40;;;12.23;;
6280;SDS011;3173;48.204;11.612;2023-03-01T00:29:09;24.37;;;12.50;;
6280;SDS011;3173;48.204;11.612;2023-03-01T00:31:36;23.80;;;12.70;;
6280;SDS011;3173;48.204;11.612;2023-03-01T00:34:03;20.97;;;12.53;;
6280;SDS011;3173;48.204;11.612;2023-03-01T00:36:31;22.10;;;12.40;;
6280;SDS011;3173;48.204;11.612;2023-03-01T00:38:57;18.60;;;11.50;;
6280;SDS011;3173;48.204;11.612;2023-03-01T00:41:24;19.27;;;12.00;;
6280;SDS011;3173;48.204;11.612;2023-03-01T00:43:53;17.07;;;11.10;;
6280;SDS011;3173;48.204;11.612;2023-03-01T00:46:21;18.07;;;11.60;;
6280;SDS011;3173;48.204;11.612;2023-03-01T00:48:47;21.27;;;11.70;;
6280;SDS011;3173;48.204;11.612;2023-03-01T00:51:18;22.67;;;13.43;;
6280;SDS011;3173;48.204;11.612;2023-03-01T00:53:45;24.53;;;11.67;;
6280;SDS011;3173;48.204;11.612;2023-03-01T00:56:12;21.65;;;13.20;;
6280;SDS011;3173;48.204;11.612;2023-03-01T00:58:38;21.20;;;12.50;;
6280;SDS011;3173;48.204;11.612;2023-03-01T01:01:08;24.10;;;13.13;;
6280;SDS011;3173;48.204;11.612;2023-03-01T01:03:43;20.10;;;12.77;;
6280;SDS011;3173;48.204;11.612;2023-03-01T01:06:16;20.37;;;12.93;;
6280;SDS011;3173;48.204;11.612;2023-03-01T01:08:42;22.33;;;12.70;;
6280;SDS011;3173;48.204;11.612;2023-03-01T01:11:09;22.60;;;12.03;;
6280;SDS011;3173;48.204;11.612;2023-03-01T01:13:36;19.50;;;12.47;;
6280;SDS011;3173;48.204;11.612;2023-03-01T01:16:02;20.20;;;11.47;;
6280;SDS011;3173;48.204;11.612;2023-03-01T01:18:29;27.83;;;12.50;;
6280;SDS011;3173;48.204;11.612;2023-03-01T01:20:55;21.20;;;12.03;;
6280;SDS011;3173;48.204;11.612;2023-03-01T01:23:21;21.67;;;12.33;;
6280;SDS011;3173;48.204;11.612;2023-03-01T01:25:47;19.53;;;11.97;;
6280;SDS011;3173;48.204;11.612;2023-03-01T01:28:14;18.83;;;10.17;;
6280;SDS011;3173;48.204;11.612;2023-03-01T01:30:40;22.67;;;11.70;;
6280;SDS011;3173;48.204;11.612;2023-03-01T01:33:06;21.40;;;13.07;;
6280;SDS011;3173;48.204;11.612;2023-03-01T01:35:32;19.17;;;12.20;;
6280;SDS011;3173;48.204;11.612;2023-03-01T01:37:58;19.70;;;11.40;;
6280;SDS011;3173;48.204;11.612;2023-03-01T01:40:24;24.03;;;12.10;;
6280;SDS011;3173;48.204;11.612;2023-03-01T01:42:50;22.67;;;12.43;;
6280;SDS011;3173;48.204;11.612;2023-03-01T01:45:31;23.37;;;12.67;;
6280;SDS011;3173;48.204;11.612;2023-03-01T01:47:59;19.43;;;12.07;;
6280;SDS011;3173;48.204;11.612;2023-03-01T01:50:26;21.52;;;12.27;;
6280;SDS011;3173;48.204;11.612;2023-03-01T01:53:02;24.50;;;13.60;;
6280;SDS011;3173;48.204;11.612;2023-03-01T01:55:29;24.47;;;13.13;;
6280;SDS011;3173;48.204;11.612;2023-03-01T01:57:56;21.90;;;12.47;;
6280;SDS011;3173;48.204;11.612;2023-03-01T02:00:25;19.17;;;12.30;;
6280;SDS011;3173;48.204;11.612;2023-03-01T02:02:55;20.90;;;12.20;;
6280;SDS011;3173;48.204;11.612;2023-03-01T02:07:48;15.80;;;10.40;;
6280;SDS011;3173;48.204;11.612;2023-03-01T02:10:15;20.43;;;11.67;;
6280;SDS011;3173;48.204;11.612;2023-03-01T02:12:41;18.43;;;11.20;;
6280;SDS011;3173;48.204;11.612;2023-03-01T02:15:07;20.93;;;12.30;;
6280;SDS011;3173;48.204;11.612;2023-03-01T02:17:34;18.23;;;11.10;;
6280;SDS011;3173;48.204;11.612;2023-03-01T02:22:33;20.63;;;11.80;;
6280;SDS011;3173;48.204;11.612;2023-03-01T02:27:40;19.37;;;11.30;;
6280;SDS011;3173;48.204;11.612;2023-03-01T02:30:09;37.83;;;18.13;;
6280;SDS011;3173;48.204;11.612;2023-03-01T02:32:38;29.47;;;14.20;;
6280;SDS011;3173;48.204;11.612;2023-03-01T02:35:07;25.50;;;12.93;;
6280;SDS011;3173;48.204;11.612;2023-03-01T02:37:34;17.52;;;11.55;;
6280;SDS011;3173;48.204;11.612;2023-03-01T02:40:02;20.27;;;11.53;;
6280;SDS011;3173;48.204;11.612;2023-03-01T02:42:35;21.23;;;12.40;;
6280;SDS011;3173;48.204;11.612;2023-03-01T02:45:03;21.73;;;12.60;;
6280;SDS011;3173;48.204;11.612;2023-03-01T02:47:29;20.53;;;12.20;;
6280;SDS011;3173;48.204;11.612;2023-03-01T02:49:55;24.23;;;11.97;;
6280;SDS011;3173;48.204;11.612;2023-03-01T02:54:52;23.63;;;12.80;;
6280;SDS011;3173;48.204;11.612;2023-03-01T02:57:20;21.85;;;12.75;;
6280;SDS011;3173;48.204;11.612;2023-03-01T02:59:47;24.45;;;12.70;;
6280;SDS011;3173;48.204;11.612;2023-03-01T03:02:21;20.05;;;11.55;;
6280;SDS011;3173;48.204;11.612;2023-03-01T03:05:02;21.35;;;11.80;;
6280;SDS011;3173;48.204;11.612;2023-03-01T03:07:28;19.40;;;10.80;;
6280;SDS011;3173;48.204;11.612;2023-03-01T03:09:54;20.67;;;12.13;;
6280;SDS011;3173;48.204;11.612;2023-03-01T03:12:20;20.83;;;12.97;;
6280;SDS011;3173;48.204;11.612;2023-03-01T03:14:46;21.90;;;11.95;;
6280;SDS011;3173;48.204;11.612;2023-03-01T03:17:12;19.88;;;12.55;;
6280;SDS011;3173;48.204;11.612;2023-03-01T03:19:38;20.95;;;12.43;;
6280;SDS011;3173;48.204;11.612;2023-03-01T03:22:04;21.63;;;12.88;;
6280;SDS011;3173;48.204;11.612;2023-03-01T03:24:30;21.25;;;12.52;;
6280;SDS011;3173;48.204;11.612;2023-03-01T03:27:03;20.50;;;12.80;;
6280;SDS011;3173;48.204;11.612;2023-03-01T03:29:29;19.65;;;12.50;;
6280;SDS011;3173;48.204;11.612;2023-03-01T03:31:55;21.63;;;13.18;;
6280;SDS011;3173;48.204;11.612;2023-03-01T03:34:21;24.60;;;13.60;;
6280;SDS011;3173;48.204;11.612;2023-03-01T03:36:49;19.08;;;12.50;;
6280;SDS011;3173;48.204;11.612;2023-03-01T03:39:22;24.95;;;13.90;;
6280;SDS011;3173;48.204;11.612;2023-03-01T03:41:48;23.25;;;13.13;;
6280;SDS011;3173;48.204;11.612;2023-03-01T03:44:14;20.25;;;12.55;;
6280;SDS011;3173;48.204;11.612;2023-03-01T03:46:40;26.27;;;12.45;;
6280;SDS011;3173;48.204;11.612;2023-03-01T03:49:06;22.13;;;12.23;;
6280;SDS011;3173;48.204;11.612;2023-03-01T03:51:32;22.92;;;12.80;;
6280;SDS011;3173;48.204;11.612;2023-03-01T03:53:58;21.00;;;11.93;;
6280;SDS011;3173;48.204;11.612;2023-03-01T03:56:24;17.90;;;11.77;;
6280;SDS011;3173;48.204;11.612;2023-03-01T03:58:50;20.60;;;12.30;;
6280;SDS011;3173;48.204;11.612;2023-03-01T04:01:17;24.63;;;13.48;;
6280;SDS011;3173;48.204;11.612;2023-03-01T04:03:43;20.25;;;11.90;;
6280;SDS011;3173;48.204;11.612;2023-03-01T04:06:12;19.33;;;12.63;;
6280;SDS011;3173;48.204;11.612;2023-03-01T04:08:39;23.52;;;12.48;;
6280;SDS011;3173;48.204;11.612;2023-03-01T04:11:05;19.90;;;12.45;;
6280;SDS011;3173;48.204;11.612;2023-03-01T04:13:51;23.73;;;13.40;;
6280;SDS011;3173;48.204;11.612;2023-03-01T04:16:18;23.73;;;13.18;;
6280;SDS011;3173;48.204;11.612;2023-03-01T04:18:44;20.23;;;12.65;;
6280;SDS011;3173;48.204;11.612;2023-03-01T04:21:10;21.95;;;11.73;;
6280;SDS011;3173;48.204;11.612;2023-03-01T04:23:37;19.95;;;11.48;;
6280;SDS011;3173;48.204;11.612;2023-03-01T04:26:03;20.08;;;13.40;;
6280;SDS011;3173;48.204;11.612;2023-03-01T04:28:30;19.75;;;12.52;;
6280;SDS011;3173;48.204;11.612;2023-03-01T04:31:01;19.95;;;11.35;;
6280;SDS011;3173;48.204;11.612;2023-03-01T04:33:37;22.52;;;12.70;;
6280;SDS011;3173;48.204;11.612;2023-03-01T04:36:04;20.98;;;13.05;;
6280;SDS011;3173;48.204;11.612;2023-03-01T04:38:34;22.33;;;13.43;;
6280;SDS011;3173;48.204;11.612;2023-03-01T04:41:02;22.83;;;12.20;;
6280;SDS011;3173;48.204;11.612;2023-03-01T04:43:28;19.00;;;11.40;;
6280;SDS011;3173;48.204;11.612;2023-03-01T04:45:54;21.55;;;12.25;;
6280;SDS011;3173;48.204;11.612;2023-03-01T04:48:20;21.90;;;13.18;;
6280;SDS011;3173;48.204;11.612;2023-03-01T04:50:47;21.85;;;11.88;;
6280;SDS011;3173;48.204;11.612;2023-03-01T04:53:13;19.65;;;12.10;;
6280;SDS011;3173;48.204;11.612;2023-03-01T04:55:39;21.70;;;12.70;;
6280;SDS011;3173;48.204;11.612;2023-03-01T04:58:05;23.80;;;13.80;;
6280;SDS011;3173;48.204;11.612;2023-03-01T05:00:31;20.92;;;12.93;;
6280;SDS011;3173;48.204;11.612;2023-03-01T05:02:59;22.20;;;12.75;;
6280;SDS011;3173;48.204;11.612;2023-03-01T05:05:27;20.20;;;11.90;;
6280;SDS011;3173;48.204;11.612;2023-03-01T05:07:54;21.40;;;11.95;;
6280;SDS011;3173;48.204;11.612;2023-03-01T05:10:20;28.15;;;12.43;;
6280;SDS011;3173;48.204;11.612;2023-03-01T05:12:46;24.13;;;14.05;;
6280;SDS011;3173;48.204;11.612;2023-03-01T05:15:13;26.50;;;13.00;;
6280;SDS011;3173;48.204;11.612;2023-03-01T05:17:39;20.85;;;11.93;;
6280;SDS011;3173;48.204;11.612;2023-03-01T05:20:05;21.95;;;11.65;;
6280;SDS011;3173;48.204;11.612;2023-03-01T05:22:35;21.30;;;12.13;;
6280;SDS011;3173;48.204;11.612;2023-03-01T05:25:01;28.42;;;12.73;;
6280;SDS011;3173;48.204;11.612;2023-03-01T05:27:27;23.73;;;13.18;;
6280;SDS011;3173;48.204;11.612;2023-03-01T05:29:55;23.23;;;13.10;;
6280;SDS011;3173;48.204;11.612;2023-03-01T05:32:21;22.30;;;12.20;;
6280;SDS011;3173;48.204;11.612;2023-03-01T05:34:47;22.55;;;12.70;;
6280;SDS011;3173;48.204;11.612;2023-03-01T05:37:13;24.30;;;13.00;;
6280;SDS011;3173;48.204;11.612;2023-03-01T05:39:39;21.58;;;12.10;;
6280;SDS011;3173;48.204;11.612;2023-03-01T05:42:09;21.90;;;13.68;;
6280;SDS011;3173;48.204;11.612;2023-03-01T05:44:36;21.60;;;11.95;;
6280;SDS011;3173;48.204;11.612;2023-03-01T05:47:02;18.65;;;11.73;;
6280;SDS011;3173;48.204;11.612;2023-03-01T05:49:28;24.83;;;11.55;;
6280;SDS011;3173;48.204;11.612;2023-03-01T05:51:55;19.08;;;11.43;;
6280;SDS011;3173;48.204;11.612;2023-03-01T05:54:21;26.52;;;13.50;;
6280;SDS011;3173;48.204;11.612;2023-03-01T05:56:47;23.75;;;12.77;;
6280;SDS011;3173;48.204;11.612;2023-03-01T05:59:14;20.67;;;12.10;;
6280;SDS011;3173;48.204;11.612;2023-03-01T06:01:41;22.08;;;13.93;;
6280;SDS011;3173;48.204;11.612;2023-03-01T06:04:07;22.70;;;12.27;;
6280;SDS011;3173;48.204;11.612;2023-03-01T06:06:34;20.20;;;12.30;;
6280;SDS011;3173;48.204;11.612;2023-03-01T06:09:02;20.08;;;11.05;;
6280;SDS011;3173;48.204;11.612;2023-03-01T06:11:28;26.08;;;12.98;;
6280;SDS011;3173;48.204;11.612;2023-03-01T06:13:54;19.45;;;11.45;;
6280;SDS011;3173;48.204;11.612;2023-03-01T06:16:21;23.60;;;13.40;;
6280;SDS011;3173;48.204;11.612;2023-03-01T06:18:47;21.85;;;12.68;;
6280;SDS011;3173;48.204;11.612;2023-03-01T06:21:13;24.33;;;12.75;;
6280;SDS011;3173;48.204;11.612;2023-03-01T06:23:39;20.33;;;11.95;;
6280;SDS011;3173;48.204;11.612;2023-03-01T06:26:06;21.38;;;12.02;;
6280;SDS011;3173;48.204;11.612;2023-03-01T06:28:32;22.58;;;12.60;;
6280;SDS011;3173;48.204;11.612;2023-03-01T06:30:59;22.75;;;10.90;;
6280;SDS011;3173;48.204;11.612;2023-03-01T06:33:25;23.58;;;12.43;;
6280;SDS011;3173;48.204;11.612;2023-03-01T06:35:51;22.35;;;13.80;;
6280;SDS011;3173;48.204;11.612;2023-03-01T06:38:19;18.52;;;11.13;;
6280;SDS011;3173;48.204;11.612;2023-03-01T06:40:51;24.15;;;12.45;;
6280;SDS011;3173;48.204;11.612;2023-03-01T06:43:19;23.10;;;12.60;;
6280;SDS011;3173;48.204;11.612;2023-03-01T06:45:45;22.33;;;12.73;;
6280;SDS011;3173;48.204;11.612;2023-03-01T06:48:10;26.87;;;13.17;;
6280;SDS011;3173;48.204;11.612;2023-03-01T06:50:36;23.00;;;12.90;;
6280;SDS011;3173;48.204;11.612;2023-03-01T06:53:03;23.45;;;12.30;;
6280;SDS011;3173;48.204;11.612;2023-03-01T06:55:29;21.23;;;12.02;;
6280;SDS011;3173;48.204;11.612;2023-03-01T06:57:56;20.30;;;12.50;;
6280;SDS011;3173;48.204;11.612;2023-03-01T07:00:22;27.55;;;12.82;;
6280;SDS011;3173;48.204;11.612;2023-03-01T07:02:48;23.92;;;12.48;;
6280;SDS011;3173;48.204;11.612;2023-03-01T07:05:14;25.63;;;13.10;;
6280;SDS011;3173;48.204;11.612;2023-03-01T07:07:40;24.58;;;13.90;;
6280;SDS011;3173;48.204;11.612;2023-03-01T07:10:06;20.90;;;11.60;;
6280;SDS011;3173;48.204;11.612;2023-03-01T07:12:32;19.88;;;11.10;;
6280;SDS011;3173;48.204;11.612;2023-03-01T07:14:58;19.52;;;12.10;;
6280;SDS011;3173;48.204;11.612;2023-03-01T07:17:24;21.73;;;12.67;;
6280;SDS011;3173;48.204;11.612;2023-03-01T07:19:50;23.23;;;12.93;;
6280;SDS011;3173;48.204;11.612;2023-03-01T07:22:16;22.17;;;12.93;;
6280;SDS011;3173;48.204;11.612;2023-03-01T07:24:42;19.20;;;10.43;;
6280;SDS011;3173;48.204;11.612;2023-03-01T07:27:09;21.88;;;12.35;;
6280;SDS011;3173;48.204;11.612;2023-03-01T07:29:35;21.67;;;12.77;;
6280;SDS011;3173;48.204;11.612;2023-03-01T07:32:04;23.27;;;13.57;;
6280;SDS011;3173;48.204;11.612;2023-03-01T07:34:30;25.88;;;12.77;;
6280;SDS011;3173;48.204;11.612;2023-03-01T07:36:56;25.20;;;13.03;;
6280;SDS011;3173;48.204;11.612;2023-03-01T07:39:22;27.13;;;12.47;;
6280;SDS011;3173;48.204;11.612;2023-03-01T07:41:48;23.60;;;13.40;;
6280;SDS011;3173;48.204;11.612;2023-03-01T07:44:14;21.05;;;11.20;;
6280;SDS011;3173;48.204;11.612;2023-03-01T07:46:41;27.08;;;12.35;;
6280;SDS011;3173;48.204;11.612;2023-03-01T07:49:07;23.80;;;12.50;;
6280;SDS011;3173;48.204;11.612;2023-03-01T07:51:33;21.80;;;11.85;;
6280;SDS011;3173;48.204;11.612;2023-03-01T07:53:59;21.97;;;13.17;;
6280;SDS011;3173;48.204;11.612;2023-03-01T07:56:25;28.73;;;12.73;;
6280;SDS011;3173;48.204;11.612;2023-03-01T07:58:51;20.43;;;11.57;;
6280;SDS011;3173;48.204;11.612;2023-03-01T08:01:17;28.10;;;12.83;;
6280;SDS011;3173;48.204;11.612;2023-03-01T08:03:44;24.45;;;13.90;;
6280;SDS011;3173;48.204;11.612;2023-03-01T08:06:10;24.00;;;12.80;;
6280;SDS011;3173;48.204;11.612;2023-03-01T08:08:37;23.63;;;12.60;;
6280;SDS011;3173;48.204;11.612;2023-03-01T08:11:04;23.65;;;13.00;;
6280;SDS011;3173;48.204;11.612;2023-03-01T08:13:30;19.55;;;11.88;;
6280;SDS011;3173;48.204;11.612;2023-03-01T08:16:03;23.80;;;13.20;;
6280;SDS011;3173;48.204;11.612;2023-03-01T08:18:29;22.77;;;14.20;;
6280;SDS011;3173;48.204;11.612;2023-03-01T08:20:55;28.38;;;12.50;;
6280;SDS011;3173;48.204;11.612;2023-03-01T08:23:21;20.70;;;12.93;;
6280;SDS011;3173;48.204;11.612;2023-03-01T08:25:47;27.20;;;14.20;;
6280;SDS011;3173;48.204;11.612;2023-03-01T08:28:13;24.43;;;13.97;;
6280;SDS011;3173;48.204;11.612;2023-03-01T08:30:39;22.47;;;13.50;;
6280;SDS011;3173;48.204;11.612;2023-03-01T08:33:05;24.50;;;13.57;;
6280;SDS011;3173;48.204;11.612;2023-03-01T08:35:30;27.27;;;13.70;;
6280;SDS011;3173;48.204;11.612;2023-03-01T08:37:56;29.33;;;13.83;;
6280;SDS011;3173;48.204;11.612;2023-03-01T08:40:22;23.40;;;13.80;;
6280;SDS011;3173;48.204;11.612;2023-03-01T08:42:48;25.03;;;13.40;;
6280;SDS011;3173;48.204;11.612;2023-03-01T08:45:14;23.17;;;13.80;;
6280;SDS011;3173;48.204;11.612;2023-03-01T08:47:43;25.30;;;13.40;;
6280;SDS011;3173;48.204;11.612;2023-03-01T08:50:10;23.67;;;14.05;;
6280;SDS011;3173;48.204;11.612;2023-03-01T08:52:36;25.05;;;13.52;;
6280;SDS011;3173;48.204;11.612;2023-03-01T08:55:02;25.43;;;13.43;;
6280;SDS011;3173;48.204;11.612;2023-03-01T08:57:28;23.40;;;12.60;;
6280;SDS011;3173;48.204;11.612;2023-03-01T08:59:54;24.10;;;12.73;;
6280;SDS011;3173;48.204;11.612;2023-03-01T09:02:21;25.67;;;13.83;;
6280;SDS011;3173;48.204;11.612;2023-03-01T09:04:47;23.30;;;14.80;;
6280;SDS011;3173;48.204;11.612;2023-03-01T09:07:12;27.77;;;15.10;;
6280;SDS011;3173;48.204;11.612;2023-03-01T09:09:38;26.97;;;14.70;;
6280;SDS011;3173;48.204;11.612;2023-03-01T09:12:04;22.73;;;13.77;;
6280;SDS011;3173;48.204;11.612;2023-03-01T09:14:31;23.33;;;13.60;;
6280;SDS011;3173;48.204;11.612;2023-03-01T09:16:57;25.13;;;14.00;;
6280;SDS011;3173;48.204;11.612;2023-03-01T09:19:23;20.30;;;12.70;;
6280;SDS011;3173;48.204;11.612;2023-03-01T09:21:49;27.33;;;14.70;;
6280;SDS011;3173;48.204;11.612;2023-03-01T09:24:19;26.73;;;14.60;;
6280;SDS011;3173;48.204;11.612;2023-03-01T09:26:46;25.40;;;14.40;;
6280;SDS011;3173;48.204;11.612;2023-03-01T09:29:12;23.57;;;13.20;;
6280;SDS011;3173;48.204;11.612;2023-03-01T09:31:39;25.90;;;13.30;;
6280;SDS011;3173;48.204;11.612;2023-03-01T09:34:05;23.90;;;13.57;;
6280;SDS011;3173;48.204;11.612;2023-03-01T09:36:31;26.20;;;13.43;;
6280;SDS011;3173;48.204;11.612;2023-03-01T09:38:58;30.73;;;16.87;;
6280;SDS011;3173;48.204;11.612;2023-03-01T09:44:15;23.63;;;13.00;;
6280;SDS011;3173;48.204;11.612;2023-03-01T09:46:44;23.87;;;13.20;;
6280;SDS011;3173;48.204;11.612;2023-03-01T09:49:12;23.43;;;13.23;;
6280;SDS011;3173;48.204;11.612;2023-03-01T09:51:42;24.37;;;14.67;;
6280;SDS011;3173;48.204;11.612;2023-03-01T09:54:08;24.90;;;13.27;;
6280;SDS011;3173;48.204;11.612;2023-03-01T09:56:56;26.57;;;15.53;;
6280;SDS011;3173;48.204;11.612;2023-03-01T09:59:33;27.33;;;14.63;;
6280;SDS011;3173;48.204;11.612;2023-03-01T10:02:14;22.50;;;14.07;;
6280;SDS011;3173;48.204;11.612;2023-03-01T10:04:48;28.30;;;15.83;;
6280;SDS011;3173;48.204;11.612;2023-03-01T10:07:22;25.97;;;15.30;;
6280;SDS011;3173;48.204;11.612;2023-03-01T10:09:53;28.80;;;15.27;;
6280;SDS011;3173;48.204;11.612;2023-03-01T10:12:23;23.33;;;14.73;;
6280;SDS011;3173;48.204;11.612;2023-03-01T10:17:34;38.83;;;16.47;;
6280;SDS011;3173;48.204;11.612;2023-03-01T10:20:22;25.80;;;16.00;;
6280;SDS011;3173;48.204;11.612;2023-03-01T10:22:48;27.70;;;17.40;;
6280;SDS011;3173;48.204;11.612;2023-03-01T10:28:25;23.57;;;15.47;;
6280;SDS011;3173;48.204;11.612;2023-03-01T10:30:53;25.27;;;16.40;;
6280;SDS011;3173;48.204;11.612;2023-03-01T10:33:21;21.83;;;16.33;;
6280;SDS011;3173;48.204;11.612;2023-03-01T10:35:48;22.63;;;16.57;;
6280;SDS011;3173;48.204;11.612;2023-03-01T10:38:15;23.10;;;16.00;;
6280;SDS011;3173;48.204;11.612;2023-03-01T10:43:20;23.90;;;16.87;;
6280;SDS011;3173;48.204;11.612;2023-03-01T10:45:46;49.83;;;28.90;;
6280;SDS011;3173;48.204;11.612;2023-03-01T10:50:38;26.53;;;17.67;;
6280;SDS011;3173;48.204;11.612;2023-03-01T10:53:16;24.47;;;17.87;;
6280;SDS011;3173;48.204;11.612;2023-03-01T10:55:45;19.63;;;16.27;;
6280;SDS011;3173;48.204;11.612;2023-03-01T11:00:47;21.20;;;16.43;;
6280;SDS011;3173;48.204;11.612;2023-03-01T11:03:15;23.40;;;16.97;;
6280;SDS011;3173;48.204;11.612;2023-03-01T11:11:24;27.63;;;15.93;;
6280;SDS011;3173;48.204;11.612;2023-03-01T11:13:54;26.73;;;17.60;;
6280;SDS011;3173;48.204;11.612;2023-03-01T11:18:56;22.33;;;17.60;;
6280;SDS011;3173;48.204;11.612;2023-03-01T11:21:24;22.40;;;17.03;;
6280;SDS011;3173;48.204;11.612;2023-03-01T11:23:51;20.77;;;16.80;;
6280;SDS011;3173;48.204;11.612;2023-03-01T11:26:17;23.57;;;16.90;;
6280;SDS011;3173;48.204;11.612;2023-03-01T11:28:44;23.60;;;16.33;;
6280;SDS011;3173;48.204;11.612;2023-03-01T11:31:15;23.43;;;16.70;;
6280;SDS011;3173;48.204;11.612;2023-03-01T11:33:55;22.87;;;17.10;;
6280;SDS011;3173;48.204;11.612;2023-03-01T11:38:53;23.10;;;17.00;;
6280;SDS011;3173;48.204;11.612;2023-03-01T11:41:20;21.00;;;16.63;;
6280;SDS011;3173;48.204;11.612;2023-03-01T11:43:49;21.90;;;16.80;;
6280;SDS011;3173;48.204;11.612;2023-03-01T11:51:23;21.27;;;16.60;;
6280;SDS011;3173;48.204;11.612;2023-03-01T11:53:56;20.73;;;16.37;;
6280;SDS011;3173;48.204;11.612;2023-03-01T12:19:33;22.73;;;17.77;;
6280;SDS011;3173;48.204;11.612;2023-03-01T12:24:44;20.30;;;17.07;;
6280;SDS011;3173;48.204;11.612;2023-03-01T12:27:29;21.27;;;18.03;;
6280;SDS011;3173;48.204;11.612;2023-03-01T12:38:08;23.90;;;17.50;;
6280;SDS011;3173;48.204;11.612;2023-03-01T12:48:11;21.10;;;16.87;;
6280;SDS011;3173;48.204;11.612;2023-03-01T12:50:40;23.77;;;17.10;;
6280;SDS011;3173;48.204;11.612;2023-03-01T12:53:13;26.40;;;18.13;;
6280;SDS011;3173;48.204;11.612;2023-03-01T12:55:43;24.63;;;18.70;;
6280;SDS011;3173;48.204;11.612;2023-03-01T13:03:26;26.00;;;17.57;;
6280;SDS011;3173;48.204;11.612;2023-03-01T13:06:19;23.90;;;17.30;;
6280;SDS011;3173;48.204;11.612;2023-03-01T13:08:44;29.97;;;18.00;;
6280;SDS011;3173;48.204;11.612;2023-03-01T13:11:20;26.47;;;16.90;;
6280;SDS011;3173;48.204;11.612;2023-03-01T13:13:47;25.87;;;18.13;;
6280;SDS011;3173;48.204;11.612;2023-03-01T13:19:14;22.00;;;17.37;;
6280;SDS011;3173;48.204;11.612;2023-03-01T13:21:41;24.60;;;16.83;;
6280;SDS011;3173;48.204;11.612;2023-03-01T13:37:45;25.40;;;16.73;;
6280;SDS011;3173;48.204;11.612;2023-03-01T13:42:47;30.73;;;17.03;;
6280;SDS011;3173;48.204;11.612;2023-03-01T13:45:23;26.50;;;16.83;;
6280;SDS011;3173;48.204;11.612;2023-03-01T13:47:54;22.20;;;14.47;;
6280;SDS011;3173;48.204;11.612;2023-03-01T13:50:23;27.80;;;16.37;;
6280;SDS011;3173;48.204;11.612;2023-03-01T13:52:52;26.90;;;17.23;;
6280;SDS011;3173;48.204;11.612;2023-03-01T13:58:01;23.50;;;16.83;;
6280;SDS011;3173;48.204;11.612;2023-03-01T14:00:29;23.63;;;15.60;;
6280;SDS011;3173;48.204;11.612;2023-03-01T14:03:40;22.97;;;15.03;;
6280;SDS011;3173;48.204;11.612;2023-03-01T14:06:04;27.93;;;16.90;;
6280;SDS011;3173;48.204;11.612;2023-03-01T14:08:32;27.43;;;17.67;;
6280;SDS011;3173;48.204;11.612;2023-03-01T14:16:36;23.40;;;15.00;;
6280;SDS011;3173;48.204;11.612;2023-03-01T14:21:31;23.13;;;14.80;;
6280;SDS011;3173;48.204;11.612;2023-03-01T14:23:57;26.03;;;15.57;;
6280;SDS011;3173;48.204;11.612;2023-03-01T14:26:24;27.73;;;17.13;;
6280;SDS011;3173;48.204;11.612;2023-03-01T14:28:50;27.40;;;15.80;;
6280;SDS011;3173;48.204;11.612;2023-03-01T14:31:38;23.33;;;14.80;;
6280;SDS011;3173;48.204;11.612;2023-03-01T14:34:05;21.93;;;13.83;;
6280;SDS011;3173;48.204;11.612;2023-03-01T14:36:31;25.37;;;14.83;;
6280;SDS011;3173;48.204;11.612;2023-03-01T14:38:57;31.27;;;13.93;;
6280;SDS011;3173;48.204;11.612;2023-03-01T14:41:29;24.23;;;14.63;;
6280;SDS011;3173;48.204;11.612;2023-03-01T14:43:57;22.90;;;14.70;;
6280;SDS011;3173;48.204;11.612;2023-03-01T14:46:25;24.10;;;15.00;;
6280;SDS011;3173;48.204;11.612;2023-03-01T14:48:53;23.17;;;14.60;;
6280;SDS011;3173;48.204;11.612;2023-03-01T14:51:19;25.40;;;13.90;;
6280;SDS011;3173;48.204;11.612;2023-03-01T14:53:46;19.67;;;12.57;;
6280;SDS011;3173;48.204;11.612;2023-03-01T14:56:13;21.80;;;14.30;;
6280;SDS011;3173;48.204;11.612;2023-03-01T14:58:40;22.90;;;13.40;;
6280;SDS011;3173;48.204;11.612;2023-03-01T15:01:07;21.07;;;13.70;;
6280;SDS011;3173;48.204;11.612;2023-03-01T15:03:38;21.10;;;12.70;;
6280;SDS011;3173;48.204;11.612;2023-03-01T15:06:06;22.73;;;14.40;;
6280;SDS011;3173;48.204;11.612;2023-03-01T15:08:32;24.87;;;14.47;;
6280;SDS011;3173;48.204;11.612;2023-03-01T15:11:16;24.07;;;14.13;;
6280;SDS011;3173;48.204;11.612;2023-03-01T15:13:43;27.73;;;13.97;;
6280;SDS011;3173;48.204;11.612;2023-03-01T15:16:18;21.43;;;14.33;;
6280;SDS011;3173;48.204;11.612;2023-03-01T15:18:46;21.07;;;13.50;;
6280;SDS011;3173;48.204;11.612;2023-03-01T15:23:47;22.83;;;14.83;;
6280;SDS011;3173;48.204;11.612;2023-03-01T15:26:22;22.13;;;13.03;;
6280;SDS011;3173;48.204;11.612;2023-03-01T15:28:49;24.03;;;13.20;;
6280;SDS011;3173;48.204;11.612;2023-03-01T15:31:20;19.13;;;12.73;;
6280;SDS011;3173;48.204;11.612;2023-03-01T15:33:46;22.53;;;14.23;;
6280;SDS011;3173;48.204;11.612;2023-03-01T15:38:58;18.23;;;11.87;;
6280;SDS011;3173;48.204;11.612;2023-03-01T15:41:26;21.10;;;12.13;;
6280;SDS011;3173;48.204;11.612;2023-03-01T15:43:53;24.83;;;12.70;;
6280;SDS011;3173;48.204;11.612;2023-03-01T15:46:22;20.77;;;13.07;;
6280;SDS011;3173;48.204;11.612;2023-03-01T15:48:52;20.10;;;13.00;;
6280;SDS011;3173;48.204;11.612;2023-03-01T15:51:20;19.10;;;11.60;;
6280;SDS011;3173;48.204;11.612;2023-03-01T15:53:49;19.07;;;13.17;;
6280;SDS011;3173;48.204;11.612;2023-03-01T15:56:16;20.10;;;13.43;;
6280;SDS011;3173;48.204;11.612;2023-03-01T15:58:42;25.90;;;11.90;;
6280;SDS011;3173;48.204;11.612;2023-03-01T16:01:15;19.60;;;11.97;;
6280;SDS011;3173;48.204;11.612;2023-03-01T16:03:44;25.70;;;13.70;;
6280;SDS011;3173;48.204;11.612;2023-03-01T16:06:10;43.53;;;20.53;;
6280;SDS011;3173;48.204;11.612;2023-03-01T16:08:37;18.80;;;12.00;;
6280;SDS011;3173;48.204;11.612;2023-03-01T16:11:03;22.40;;;12.60;;
6280;SDS011;3173;48.204;11.612;2023-03-01T16:13:31;19.10;;;11.13;;
6280;SDS011;3173;48.204;11.612;2023-03-01T16:15:57;16.87;;;10.33;;
6280;SDS011;3173;48.204;11.612;2023-03-01T16:18:23;18.03;;;11.17;;
6280;SDS011;3173;48.204;11.612;2023-03-01T16:20:49;19.90;;;11.90;;
6280;SDS011;3173;48.204;11.612;2023-03-01T16:23:15;18.60;;;12.40;;
6280;SDS011;3173;48.204;11.612;2023-03-01T16:25:41;18.20;;;11.43;;
6280;SDS011;3173;48.204;11.612;2023-03-01T16:28:07;19.10;;;11.70;;
6280;SDS011;3173;48.204;11.612;2023-03-01T16:30:35;17.90;;;11.27;;
6280;SDS011;3173;48.204;11.612;2023-03-01T16:33:01;18.60;;;10.67;;
6280;SDS011;3173;48.204;11.612;2023-03-01T16:35:27;20.87;;;11.70;;
6280;SDS011;3173;48.204;11.612;2023-03-01T16:37:53;18.03;;;11.67;;
6280;SDS011;3173;48.204;11.612;2023-03-01T16:40:26;21.07;;;12.47;;
6280;SDS011;3173;48.204;11.612;2023-03-01T16:42:53;22.93;;;13.07;;